sensor_id;sensor_type;location;lat;lon;timestamp;temperature;humidity
8593;DHT22;4334;49.982;8.398;2024-03-17T00:01:38;7.50;99.90
8593;DHT22;4334;49.982;8.398;2024-03-17T00:04:06;7.50;99.90
8593;DHT22;4334;49.982;8.398;2024-03-17T00:06:33;7.50;99.90
8593;DHT22;4334;49.982;8.398;2024-03-17T00:08:59;7.50;99.90
8593;DHT22;4334;49.982;8.398;2024-03-17T00:11:26;7.40;99.90
8593;DHT22;4334;49.982;8.398;2024-03-17T00:13:52;7.40;99.90
8593;DHT22;4334;49.982;8.398;2024-03-17T00:16:18;7.40;99.90
8593;DHT22;4334;49.982;8.398;2024-03-17T00:18:45;7.30;99.90
8593;DHT22;4334;49.982;8.398;2024-03-17T00:21:12;7.20;99.90
8593;DHT22;4334;49.982;8.398;2024-03-17T00:23:38;7.20;99.90
8593;DHT22;4334;49.982;8.398;2024-03-17T00:26:05;7.20;99.90
8593;DHT22;4334;49.982;8.398;2024-03-17T00:28:31;7.00;99.90
8593;DHT22;4334;49.982;8.398;2024-03-17T00:30:57;7.10;99.90
8593;DHT22;4334;49.982;8.398;2024-03-17T00:33:23;7.10;99.90
8593;DHT22;4334;49.982;8.398;2024-03-17T00:35:50;7.10;99.90
8593;DHT22;4334;49.982;8.398;2024-03-17T00:38:16;7.00;99.90
8593;DHT22;4334;49.982;8.398;2024-03-17T00:40:43;7.00;99.90
8593;DHT22;4334;49.982;8.398;2024-03-17T00:43:10;6.90;99.90
8593;DHT22;4334;49.982;8.398;2024-03-17T00:45:37;6.90;99.90
8593;DHT22;4334;49.982;8.398;2024-03-17T00:48:03;6.90;99.90
8593;DHT22;4334;49.982;8.398;2024-03-17T00:50:31;6.80;99.90
8593;DHT22;4334;49.982;8.398;2024-03-17T00:52:57;6.80;99.90
8593;DHT22;4334;49.982;8.398;2024-03-17T00:55:23;6.70;99.90
8593;DHT22;4334;49.982;8.398;2024-03-17T00:57:49;6.70;99.90
8593;DHT22;4334;49.982;8.398;2024-03-17T01:00:15;6.60;99.90
8593;DHT22;4334;49.982;8.398;2024-03-17T01:02:41;6.40;99.90
8593;DHT22;4334;49.982;8.398;2024-03-17T01:05:08;6.30;99.90
8593;DHT22;4334;49.982;8.398;2024-03-17T01:07:34;6.30;99.90
8593;DHT22;4334;49.982;8.398;2024-03-17T01:10:00;6.20;99.90
8593;DHT22;4334;49.982;8.398;2024-03-17T01:12:26;6.20;99.90
8593;DHT22;4334;49.982;8.398;2024-03-17T01:14:53;6.30;99.90
8593;DHT22;4334;49.982;8.398;2024-03-17T01:17:18;6.20;99.90
8593;DHT22;4334;49.982;8.398;2024-03-17T01:19:45;6.20;99.90
8593;DHT22;4334;49.982;8.398;2024-03-17T01:22:11;6.20;99.90
8593;DHT22;4334;49.982;8.398;2024-03-17T01:24:38;6.10;99.90
8593;DHT22;4334;49.982;8.398;2024-03-17T01:27:06;6.50;99.90
8593;DHT22;4334;49.982;8.398;2024-03-17T01:29:34;6.10;99.90
8593;DHT22;4334;49.982;8.398;2024-03-17T01:32:00;6.00;99.90
8593;DHT22;4334;49.982;8.398;2024-03-17T01:34:26;5.80;99.90
8593;DHT22;4334;49.982;8.398;2024-03-17T01:36:52;5.70;99.90
8593;DHT22;4334;49.982;8.398;2024-03-17T01:39:18;5.60;99.90
8593;DHT22;4334;49.982;8.398;2024-03-17T01:41:46;5.40;99.90
8593;DHT22;4334;49.982;8.398;2024-03-17T01:44:23;5.40;99.90
8593;DHT22;4334;49.982;8.398;2024-03-17T01:46:50;5.20;99.90
8593;DHT22;4334;49.982;8.398;2024-03-17T01:49:17;5.10;99.90
8593;DHT22;4334;49.982;8.398;2024-03-17T01:51:45;5.00;99.90
8593;DHT22;4334;49.982;8.398;2024-03-17T01:54:13;5.00;99.90
8593;DHT22;4334;49.982;8.398;2024-03-17T01:56:40;5.00;99.90
8593;DHT22;4334;49.982;8.398;2024-03-17T01:59:08;5.30;99.90
8593;DHT22;4334;49.982;8.398;2024-03-17T02:01:34;5.20;99.90
8593;DHT22;4334;49.982;8.398;2024-03-17T02:04:02;5.30;99.90
8593;DHT22;4334;49.982;8.398;2024-03-17T02:06:28;7.10;99.90
8593;DHT22;4334;49.982;8.398;2024-03-17T02:08:54;5.20;99.90
8593;DHT22;4334;49.982;8.398;2024-03-17T02:11:25;5.10;99.90
8593;DHT22;4334;49.982;8.398;2024-03-17T02:13:53;5.20;99.90
8593;DHT22;4334;49.982;8.398;2024-03-17T02:16:19;5.20;99.90
8593;DHT22;4334;49.982;8.398;2024-03-17T02:18:46;5.30;99.90
8593;DHT22;4334;49.982;8.398;2024-03-17T02:21:13;5.20;99.90
8593;DHT22;4334;49.982;8.398;2024-03-17T02:23:41;5.20;99.90
8593;DHT22;4334;49.982;8.398;2024-03-17T02:26:07;5.20;99.90
8593;DHT22;4334;49.982;8.398;2024-03-17T02:28:44;5.00;99.90
8593;DHT22;4334;49.982;8.398;2024-03-17T02:31:11;5.00;99.90
8593;DHT22;4334;49.982;8.398;2024-03-17T02:33:38;4.80;99.90
8593;DHT22;4334;49.982;8.398;2024-03-17T02:36:04;4.70;99.90
8593;DHT22;4334;49.982;8.398;2024-03-17T02:38:35;4.70;99.90
8593;DHT22;4334;49.982;8.398;2024-03-17T02:41:20;4.70;99.90
8593;DHT22;4334;49.982;8.398;2024-03-17T02:43:47;4.70;99.90
8593;DHT22;4334;49.982;8.398;2024-03-17T02:46:15;4.70;99.90
8593;DHT22;4334;49.982;8.398;2024-03-17T02:48:43;4.60;99.90
8593;DHT22;4334;49.982;8.398;2024-03-17T02:51:16;4.50;99.90
8593;DHT22;4334;49.982;8.398;2024-03-17T02:53:45;4.30;99.90
8593;DHT22;4334;49.982;8.398;2024-03-17T02:56:13;4.20;99.90
8593;DHT22;4334;49.982;8.398;2024-03-17T02:58:42;4.20;99.90
8593;DHT22;4334;49.982;8.398;2024-03-17T03:01:09;4.00;99.90
8593;DHT22;4334;49.982;8.398;2024-03-17T03:03:36;4.10;99.90
8593;DHT22;4334;49.982;8.398;2024-03-17T03:06:03;4.10;99.90
8593;DHT22;4334;49.982;8.398;2024-03-17T03:08:40;4.00;99.90
8593;DHT22;4334;49.982;8.398;2024-03-17T03:11:08;4.00;99.90
8593;DHT22;4334;49.982;8.398;2024-03-17T03:13:39;4.10;99.90
8593;DHT22;4334;49.982;8.398;2024-03-17T03:16:07;4.00;99.90
8593;DHT22;4334;49.982;8.398;2024-03-17T03:18:35;3.90;99.90
8593;DHT22;4334;49.982;8.398;2024-03-17T03:21:02;3.80;99.90
8593;DHT22;4334;49.982;8.398;2024-03-17T03:23:28;3.80;99.90
8593;DHT22;4334;49.982;8.398;2024-03-17T03:25:56;3.90;99.90
8593;DHT22;4334;49.982;8.398;2024-03-17T03:28:23;3.80;99.90
8593;DHT22;4334;49.982;8.398;2024-03-17T03:30:50;3.80;99.90
8593;DHT22;4334;49.982;8.398;2024-03-17T03:33:18;3.70;99.90
8593;DHT22;4334;49.982;8.398;2024-03-17T03:35:45;3.60;99.90
8593;DHT22;4334;49.982;8.398;2024-03-17T03:38:13;3.50;99.90
8593;DHT22;4334;49.982;8.398;2024-03-17T03:40:40;3.40;99.90
8593;DHT22;4334;49.982;8.398;2024-03-17T03:43:11;3.50;99.90
8593;DHT22;4334;49.982;8.398;2024-03-17T03:45:38;3.50;99.90
8593;DHT22;4334;49.982;8.398;2024-03-17T03:48:06;3.50;99.90
8593;DHT22;4334;49.982;8.398;2024-03-17T03:50:34;3.60;99.90
8593;DHT22;4334;49.982;8.398;2024-03-17T03:53:01;3.60;99.90
8593;DHT22;4334;49.982;8.398;2024-03-17T03:55:27;3.90;99.90
8593;DHT22;4334;49.982;8.398;2024-03-17T03:57:54;3.90;99.90
8593;DHT22;4334;49.982;8.398;2024-03-17T04:00:22;4.00;99.90
8593;DHT22;4334;49.982;8.398;2024-03-17T04:02:50;4.00;99.90
8593;DHT22;4334;49.982;8.398;2024-03-17T04:05:18;3.90;99.90
8593;DHT22;4334;49.982;8.398;2024-03-17T04:07:46;3.70;99.90
8593;DHT22;4334;49.982;8.398;2024-03-17T04:10:14;3.60;99.90
8593;DHT22;4334;49.982;8.398;2024-03-17T04:12:42;3.50;99.90
8593;DHT22;4334;49.982;8.398;2024-03-17T04:15:09;3.50;99.90
8593;DHT22;4334;49.982;8.398;2024-03-17T04:17:37;3.50;99.90
8593;DHT22;4334;49.982;8.398;2024-03-17T04:20:04;3.60;99.90
8593;DHT22;4334;49.982;8.398;2024-03-17T04:22:33;3.70;99.90
8593;DHT22;4334;49.982;8.398;2024-03-17T04:25:00;3.60;99.90
8593;DHT22;4334;49.982;8.398;2024-03-17T04:27:29;4.10;99.90
8593;DHT22;4334;49.982;8.398;2024-03-17T04:29:57;3.30;99.90
8593;DHT22;4334;49.982;8.398;2024-03-17T04:32:24;3.30;99.90
8593;DHT22;4334;49.982;8.398;2024-03-17T04:34:52;3.40;99.90
8593;DHT22;4334;49.982;8.398;2024-03-17T04:37:18;3.40;99.90
8593;DHT22;4334;49.982;8.398;2024-03-17T04:39:46;3.40;99.90
8593;DHT22;4334;49.982;8.398;2024-03-17T04:42:14;3.40;99.90
8593;DHT22;4334;49.982;8.398;2024-03-17T04:44:42;3.40;99.90
8593;DHT22;4334;49.982;8.398;2024-03-17T04:47:09;3.50;99.90
8593;DHT22;4334;49.982;8.398;2024-03-17T04:49:40;3.50;99.90
8593;DHT22;4334;49.982;8.398;2024-03-17T04:52:08;3.60;99.90
8593;DHT22;4334;49.982;8.398;2024-03-17T04:54:35;6.70;99.90
8593;DHT22;4334;49.982;8.398;2024-03-17T04:57:02;3.60;99.90
8593;DHT22;4334;49.982;8.398;2024-03-17T04:59:29;3.60;99.90
8593;DHT22;4334;49.982;8.398;2024-03-17T05:01:56;3.60;99.90
8593;DHT22;4334;49.982;8.398;2024-03-17T05:04:22;3.90;99.90
8593;DHT22;4334;49.982;8.398;2024-03-17T05:06:49;3.70;99.90
8593;DHT22;4334;49.982;8.398;2024-03-17T05:09:19;3.80;99.90
8593;DHT22;4334;49.982;8.398;2024-03-17T05:11:46;3.90;99.90
8593;DHT22;4334;49.982;8.398;2024-03-17T05:14:13;4.00;99.90
8593;DHT22;4334;49.982;8.398;2024-03-17T05:16:39;4.10;99.90
8593;DHT22;4334;49.982;8.398;2024-03-17T05:19:06;4.20;99.90
8593;DHT22;4334;49.982;8.398;2024-03-17T05:21:34;4.40;99.90
8593;DHT22;4334;49.982;8.398;2024-03-17T05:24:02;4.50;99.90
8593;DHT22;4334;49.982;8.398;2024-03-17T05:26:28;4.50;99.90
8593;DHT22;4334;49.982;8.398;2024-03-17T05:28:56;4.60;99.90
8593;DHT22;4334;49.982;8.398;2024-03-17T05:31:22;4.70;99.90
8593;DHT22;4334;49.982;8.398;2024-03-17T05:33:49;4.80;99.90
8593;DHT22;4334;49.982;8.398;2024-03-17T05:36:17;4.80;99.90
8593;DHT22;4334;49.982;8.398;2024-03-17T05:38:45;4.90;99.90
8593;DHT22;4334;49.982;8.398;2024-03-17T05:41:12;4.90;99.90
8593;DHT22;4334;49.982;8.398;2024-03-17T05:43:39;4.90;99.90
8593;DHT22;4334;49.982;8.398;2024-03-17T05:46:10;4.90;99.90
8593;DHT22;4334;49.982;8.398;2024-03-17T05:48:39;5.00;99.90
8593;DHT22;4334;49.982;8.398;2024-03-17T05:51:10;5.10;99.90
8593;DHT22;4334;49.982;8.398;2024-03-17T05:53:38;5.10;99.90
8593;DHT22;4334;49.982;8.398;2024-03-17T05:56:06;5.10;99.90
8593;DHT22;4334;49.982;8.398;2024-03-17T05:58:34;5.10;99.90
8593;DHT22;4334;49.982;8.398;2024-03-17T06:01:05;5.20;99.90
8593;DHT22;4334;49.982;8.398;2024-03-17T06:03:33;5.20;99.90
8593;DHT22;4334;49.982;8.398;2024-03-17T06:06:01;5.20;99.90
8593;DHT22;4334;49.982;8.398;2024-03-17T06:08:28;5.30;99.90
8593;DHT22;4334;49.982;8.398;2024-03-17T06:10:55;5.40;99.90
8593;DHT22;4334;49.982;8.398;2024-03-17T06:13:22;5.50;99.90
8593;DHT22;4334;49.982;8.398;2024-03-17T06:15:50;5.60;99.90
8593;DHT22;4334;49.982;8.398;2024-03-17T06:18:16;5.70;99.90
8593;DHT22;4334;49.982;8.398;2024-03-17T06:20:44;5.70;99.90
8593;DHT22;4334;49.982;8.398;2024-03-17T06:23:12;5.60;99.90
8593;DHT22;4334;49.982;8.398;2024-03-17T06:25:46;5.70;99.90
8593;DHT22;4334;49.982;8.398;2024-03-17T06:28:15;5.70;99.90
8593;DHT22;4334;49.982;8.398;2024-03-17T06:30:46;5.70;99.90
8593;DHT22;4334;49.982;8.398;2024-03-17T06:33:15;5.80;99.90
8593;DHT22;4334;49.982;8.398;2024-03-17T06:35:44;5.80;99.90
8593;DHT22;4334;49.982;8.398;2024-03-17T06:38:12;6.00;99.90
8593;DHT22;4334;49.982;8.398;2024-03-17T06:40:39;6.10;99.90
8593;DHT22;4334;49.982;8.398;2024-03-17T06:43:05;6.20;99.90
8593;DHT22;4334;49.982;8.398;2024-03-17T06:45:33;10.20;99.90
8593;DHT22;4334;49.982;8.398;2024-03-17T06:48:00;6.40;99.90
8593;DHT22;4334;49.982;8.398;2024-03-17T06:50:26;6.30;99.90
8593;DHT22;4334;49.982;8.398;2024-03-17T06:52:53;6.30;99.90
8593;DHT22;4334;49.982;8.398;2024-03-17T06:55:19;6.30;99.90
8593;DHT22;4334;49.982;8.398;2024-03-17T06:57:47;6.30;99.90
8593;DHT22;4334;49.982;8.398;2024-03-17T07:00:14;6.40;99.90
8593;DHT22;4334;49.982;8.398;2024-03-17T07:02:48;6.60;99.90
8593;DHT22;4334;49.982;8.398;2024-03-17T07:05:15;6.70;99.90
8593;DHT22;4334;49.982;8.398;2024-03-17T07:07:43;6.90;99.90
8593;DHT22;4334;49.982;8.398;2024-03-17T07:10:10;6.90;99.90
8593;DHT22;4334;49.982;8.398;2024-03-17T07:12:41;7.00;99.90
8593;DHT22;4334;49.982;8.398;2024-03-17T07:15:08;7.10;99.90
8593;DHT22;4334;49.982;8.398;2024-03-17T07:17:36;7.50;99.90
8593;DHT22;4334;49.982;8.398;2024-03-17T07:20:03;8.20;99.90
8593;DHT22;4334;49.982;8.398;2024-03-17T07:22:33;9.00;99.90
8593;DHT22;4334;49.982;8.398;2024-03-17T07:25:00;9.80;99.90
8593;DHT22;4334;49.982;8.398;2024-03-17T07:27:27;9.60;99.90
8593;DHT22;4334;49.982;8.398;2024-03-17T07:29:54;9.10;99.90
8593;DHT22;4334;49.982;8.398;2024-03-17T07:32:21;9.00;99.90
8593;DHT22;4334;49.982;8.398;2024-03-17T07:34:48;8.80;99.90
8593;DHT22;4334;49.982;8.398;2024-03-17T07:37:16;8.70;99.90
8593;DHT22;4334;49.982;8.398;2024-03-17T07:39:42;8.70;99.90
8593;DHT22;4334;49.982;8.398;2024-03-17T07:42:09;8.80;99.90
8593;DHT22;4334;49.982;8.398;2024-03-17T07:44:37;9.00;99.90
8593;DHT22;4334;49.982;8.398;2024-03-17T07:47:04;8.90;99.90
8593;DHT22;4334;49.982;8.398;2024-03-17T07:49:31;9.10;99.90
8593;DHT22;4334;49.982;8.398;2024-03-17T07:51:58;9.40;99.90
8593;DHT22;4334;49.982;8.398;2024-03-17T07:54:25;9.30;99.90
8593;DHT22;4334;49.982;8.398;2024-03-17T07:56:53;9.10;99.90
8593;DHT22;4334;49.982;8.398;2024-03-17T07:59:20;8.80;99.90
8593;DHT22;4334;49.982;8.398;2024-03-17T08:01:47;8.80;99.90
8593;DHT22;4334;49.982;8.398;2024-03-17T08:04:13;9.30;99.90
8593;DHT22;4334;49.982;8.398;2024-03-17T08:06:40;9.90;99.90
8593;DHT22;4334;49.982;8.398;2024-03-17T08:09:07;11.00;99.90
8593;DHT22;4334;49.982;8.398;2024-03-17T08:11:37;11.60;99.90
8593;DHT22;4334;49.982;8.398;2024-03-17T08:14:03;11.80;99.90
8593;DHT22;4334;49.982;8.398;2024-03-17T08:16:31;12.00;99.90
8593;DHT22;4334;49.982;8.398;2024-03-17T08:18:57;11.80;99.90
8593;DHT22;4334;49.982;8.398;2024-03-17T08:21:24;11.20;99.90
8593;DHT22;4334;49.982;8.398;2024-03-17T08:23:52;10.90;99.90
8593;DHT22;4334;49.982;8.398;2024-03-17T08:26:19;10.80;99.90
8593;DHT22;4334;49.982;8.398;2024-03-17T08:28:45;10.90;99.90
8593;DHT22;4334;49.982;8.398;2024-03-17T08:31:13;10.60;99.90
8593;DHT22;4334;49.982;8.398;2024-03-17T08:33:40;10.20;99.90
8593;DHT22;4334;49.982;8.398;2024-03-17T08:36:08;10.30;99.90
8593;DHT22;4334;49.982;8.398;2024-03-17T08:38:35;11.10;99.90
8593;DHT22;4334;49.982;8.398;2024-03-17T08:41:03;15.50;99.90
8593;DHT22;4334;49.982;8.398;2024-03-17T08:43:31;12.70;99.90
8593;DHT22;4334;49.982;8.398;2024-03-17T08:46:05;12.80;99.90
8593;DHT22;4334;49.982;8.398;2024-03-17T08:48:37;12.10;99.90
8593;DHT22;4334;49.982;8.398;2024-03-17T08:51:05;12.10;99.90
8593;DHT22;4334;49.982;8.398;2024-03-17T08:53:32;12.10;99.90
8593;DHT22;4334;49.982;8.398;2024-03-17T08:55:59;12.10;99.90
8593;DHT22;4334;49.982;8.398;2024-03-17T08:58:26;11.70;99.90
8593;DHT22;4334;49.982;8.398;2024-03-17T09:00:53;12.00;99.90
8593;DHT22;4334;49.982;8.398;2024-03-17T09:03:21;12.90;99.90
8593;DHT22;4334;49.982;8.398;2024-03-17T09:05:48;13.30;99.90
8593;DHT22;4334;49.982;8.398;2024-03-17T09:08:22;13.70;99.90
8593;DHT22;4334;49.982;8.398;2024-03-17T09:10:50;14.20;99.90
8593;DHT22;4334;49.982;8.398;2024-03-17T09:13:19;13.80;99.90
8593;DHT22;4334;49.982;8.398;2024-03-17T09:18:23;13.60;99.90
8593;DHT22;4334;49.982;8.398;2024-03-17T09:21:01;13.60;99.90
8593;DHT22;4334;49.982;8.398;2024-03-17T09:23:28;13.70;99.90
8593;DHT22;4334;49.982;8.398;2024-03-17T09:25:59;14.00;99.90
8593;DHT22;4334;49.982;8.398;2024-03-17T09:28:27;13.70;99.90
8593;DHT22;4334;49.982;8.398;2024-03-17T09:30:55;13.40;99.90
8593;DHT22;4334;49.982;8.398;2024-03-17T09:33:26;13.80;99.90
8593;DHT22;4334;49.982;8.398;2024-03-17T09:35:57;13.30;99.90
8593;DHT22;4334;49.982;8.398;2024-03-17T09:38:24;12.90;99.90
8593;DHT22;4334;49.982;8.398;2024-03-17T09:40:51;13.30;99.90
8593;DHT22;4334;49.982;8.398;2024-03-17T09:43:19;13.60;99.90
8593;DHT22;4334;49.982;8.398;2024-03-17T09:45:46;13.90;99.90
8593;DHT22;4334;49.982;8.398;2024-03-17T09:48:16;14.00;99.90
8593;DHT22;4334;49.982;8.398;2024-03-17T09:50:51;13.80;99.90
8593;DHT22;4334;49.982;8.398;2024-03-17T09:53:24;13.90;99.90
8593;DHT22;4334;49.982;8.398;2024-03-17T09:55:58;14.20;99.90
8593;DHT22;4334;49.982;8.398;2024-03-17T09:58:24;13.90;99.90
8593;DHT22;4334;49.982;8.398;2024-03-17T10:00:51;14.90;99.90
8593;DHT22;4334;49.982;8.398;2024-03-17T10:03:40;15.20;99.90
8593;DHT22;4334;49.982;8.398;2024-03-17T10:06:08;15.50;99.90
8593;DHT22;4334;49.982;8.398;2024-03-17T10:11:15;15.20;99.90
8593;DHT22;4334;49.982;8.398;2024-03-17T10:13:43;15.80;99.90
8593;DHT22;4334;49.982;8.398;2024-03-17T10:16:25;16.10;99.90
8593;DHT22;4334;49.982;8.398;2024-03-17T10:19:22;15.90;99.90
8593;DHT22;4334;49.982;8.398;2024-03-17T10:21:50;16.60;99.90
8593;DHT22;4334;49.982;8.398;2024-03-17T10:24:25;19.80;99.90
8593;DHT22;4334;49.982;8.398;2024-03-17T10:26:55;16.30;99.90
8593;DHT22;4334;49.982;8.398;2024-03-17T10:29:33;16.70;99.60
8593;DHT22;4334;49.982;8.398;2024-03-17T10:32:12;16.60;99.20
8593;DHT22;4334;49.982;8.398;2024-03-17T10:34:39;16.50;99.10
8593;DHT22;4334;49.982;8.398;2024-03-17T10:37:10;16.70;99.10
8593;DHT22;4334;49.982;8.398;2024-03-17T10:39:38;16.70;99.20
8593;DHT22;4334;49.982;8.398;2024-03-17T10:42:06;16.30;99.60
8593;DHT22;4334;49.982;8.398;2024-03-17T10:44:34;16.10;99.90
8593;DHT22;4334;49.982;8.398;2024-03-17T10:47:02;16.10;99.90
8593;DHT22;4334;49.982;8.398;2024-03-17T10:49:36;16.20;99.90
8593;DHT22;4334;49.982;8.398;2024-03-17T10:52:04;16.00;99.90
8593;DHT22;4334;49.982;8.398;2024-03-17T10:54:32;15.80;99.90
8593;DHT22;4334;49.982;8.398;2024-03-17T10:57:06;15.90;99.90
8593;DHT22;4334;49.982;8.398;2024-03-17T10:59:47;15.80;99.90
8593;DHT22;4334;49.982;8.398;2024-03-17T11:02:22;15.90;99.90
8593;DHT22;4334;49.982;8.398;2024-03-17T11:04:58;16.20;99.90
8593;DHT22;4334;49.982;8.398;2024-03-17T11:07:26;16.30;99.90
8593;DHT22;4334;49.982;8.398;2024-03-17T11:09:55;16.40;99.90
8593;DHT22;4334;49.982;8.398;2024-03-17T11:17:46;16.20;99.90
8593;DHT22;4334;49.982;8.398;2024-03-17T11:20:24;16.40;99.90
8593;DHT22;4334;49.982;8.398;2024-03-17T11:22:53;17.40;98.20
8593;DHT22;4334;49.982;8.398;2024-03-17T11:39:06;18.10;95.00
8593;DHT22;4334;49.982;8.398;2024-03-17T11:47:00;19.00;94.70
8593;DHT22;4334;49.982;8.398;2024-03-17T11:49:38;19.30;94.80
8593;DHT22;4334;49.982;8.398;2024-03-17T11:52:09;19.30;93.80
8593;DHT22;4334;49.982;8.398;2024-03-17T11:54:37;18.60;93.80
8593;DHT22;4334;49.982;8.398;2024-03-17T11:57:04;18.40;94.30
8593;DHT22;4334;49.982;8.398;2024-03-17T11:59:31;18.10;94.70
8593;DHT22;4334;49.982;8.398;2024-03-17T12:01:57;17.60;94.00
8593;DHT22;4334;49.982;8.398;2024-03-17T12:04:24;17.30;95.10
8593;DHT22;4334;49.982;8.398;2024-03-17T12:06:52;19.40;96.80
8593;DHT22;4334;49.982;8.398;2024-03-17T12:09:21;21.60;97.50
8593;DHT22;4334;49.982;8.398;2024-03-17T12:12:14;17.60;96.00
8593;DHT22;4334;49.982;8.398;2024-03-17T12:14:42;17.60;95.50
8593;DHT22;4334;49.982;8.398;2024-03-17T12:17:12;17.80;96.40
8593;DHT22;4334;49.982;8.398;2024-03-17T12:19:39;19.20;97.90
8593;DHT22;4334;49.982;8.398;2024-03-17T12:22:06;16.60;98.10
8593;DHT22;4334;49.982;8.398;2024-03-17T12:24:34;19.30;98.90
8593;DHT22;4334;49.982;8.398;2024-03-17T12:27:04;17.00;98.90
8593;DHT22;4334;49.982;8.398;2024-03-17T12:29:37;17.80;98.40
8593;DHT22;4334;49.982;8.398;2024-03-17T12:32:22;18.70;97.20
8593;DHT22;4334;49.982;8.398;2024-03-17T12:34:53;19.20;95.80
8593;DHT22;4334;49.982;8.398;2024-03-17T12:37:23;19.00;95.90
8593;DHT22;4334;49.982;8.398;2024-03-17T12:39:49;19.10;95.90
8593;DHT22;4334;49.982;8.398;2024-03-17T12:42:23;20.50;96.40
8593;DHT22;4334;49.982;8.398;2024-03-17T12:44:52;18.90;95.30
8593;DHT22;4334;49.982;8.398;2024-03-17T12:47:23;18.10;96.80
8593;DHT22;4334;49.982;8.398;2024-03-17T12:49:50;17.40;97.10
8593;DHT22;4334;49.982;8.398;2024-03-17T12:52:35;17.30;97.80
8593;DHT22;4334;49.982;8.398;2024-03-17T12:55:02;20.10;99.90
8593;DHT22;4334;49.982;8.398;2024-03-17T13:00:45;16.20;99.90
8593;DHT22;4334;49.982;8.398;2024-03-17T13:03:24;16.20;99.70
8593;DHT22;4334;49.982;8.398;2024-03-17T13:05:50;19.30;99.90
8593;DHT22;4334;49.982;8.398;2024-03-17T13:08:17;16.30;99.90
8593;DHT22;4334;49.982;8.398;2024-03-17T13:10:44;16.20;99.90
8593;DHT22;4334;49.982;8.398;2024-03-17T13:13:12;16.10;99.90
8593;DHT22;4334;49.982;8.398;2024-03-17T13:15:41;15.80;99.90
8593;DHT22;4334;49.982;8.398;2024-03-17T13:18:08;15.70;99.90
8593;DHT22;4334;49.982;8.398;2024-03-17T13:20:35;15.70;99.90
8593;DHT22;4334;49.982;8.398;2024-03-17T13:23:01;15.50;99.90
8593;DHT22;4334;49.982;8.398;2024-03-17T13:25:29;18.10;99.90
8593;DHT22;4334;49.982;8.398;2024-03-17T13:28:00;16.10;99.90
8593;DHT22;4334;49.982;8.398;2024-03-17T13:30:29;16.50;99.90
8593;DHT22;4334;49.982;8.398;2024-03-17T13:32:56;16.50;99.90
8593;DHT22;4334;49.982;8.398;2024-03-17T13:35:28;16.40;99.90
8593;DHT22;4334;49.982;8.398;2024-03-17T13:37:56;16.60;99.90
8593;DHT22;4334;49.982;8.398;2024-03-17T13:40:25;16.60;99.90
8593;DHT22;4334;49.982;8.398;2024-03-17T13:42:53;16.50;99.90
8593;DHT22;4334;49.982;8.398;2024-03-17T13:45:21;16.90;99.90
8593;DHT22;4334;49.982;8.398;2024-03-17T13:47:52;20.50;99.90
8593;DHT22;4334;49.982;8.398;2024-03-17T13:50:20;16.40;99.90
8593;DHT22;4334;49.982;8.398;2024-03-17T13:52:47;16.20;99.90
8593;DHT22;4334;49.982;8.398;2024-03-17T13:55:19;16.50;99.90
8593;DHT22;4334;49.982;8.398;2024-03-17T13:57:50;16.40;99.90
8593;DHT22;4334;49.982;8.398;2024-03-17T14:00:20;16.10;99.90
8593;DHT22;4334;49.982;8.398;2024-03-17T14:02:47;15.80;99.90
8593;DHT22;4334;49.982;8.398;2024-03-17T14:05:17;15.50;99.90
8593;DHT22;4334;49.982;8.398;2024-03-17T14:07:43;15.40;99.90
8593;DHT22;4334;49.982;8.398;2024-03-17T14:10:13;15.10;99.90
8593;DHT22;4334;49.982;8.398;2024-03-17T14:12:40;15.20;99.90
8593;DHT22;4334;49.982;8.398;2024-03-17T14:15:08;15.20;99.90
8593;DHT22;4334;49.982;8.398;2024-03-17T14:17:37;15.20;99.90
8593;DHT22;4334;49.982;8.398;2024-03-17T14:20:04;15.10;99.90
8593;DHT22;4334;49.982;8.398;2024-03-17T14:22:35;15.20;99.90
8593;DHT22;4334;49.982;8.398;2024-03-17T14:25:02;15.40;99.90
8593;DHT22;4334;49.982;8.398;2024-03-17T14:27:28;15.20;99.90
8593;DHT22;4334;49.982;8.398;2024-03-17T14:29:55;15.20;99.90
8593;DHT22;4334;49.982;8.398;2024-03-17T14:32:21;19.30;99.90
8593;DHT22;4334;49.982;8.398;2024-03-17T14:34:48;15.00;99.90
8593;DHT22;4334;49.982;8.398;2024-03-17T14:37:15;14.90;99.90
8593;DHT22;4334;49.982;8.398;2024-03-17T14:39:42;14.90;99.90
8593;DHT22;4334;49.982;8.398;2024-03-17T14:42:09;14.90;99.90
8593;DHT22;4334;49.982;8.398;2024-03-17T14:44:36;15.00;99.90
8593;DHT22;4334;49.982;8.398;2024-03-17T14:47:03;15.00;99.90
8593;DHT22;4334;49.982;8.398;2024-03-17T14:49:30;15.10;99.90
8593;DHT22;4334;49.982;8.398;2024-03-17T14:51:57;15.10;99.90
8593;DHT22;4334;49.982;8.398;2024-03-17T14:54:24;15.00;99.90
8593;DHT22;4334;49.982;8.398;2024-03-17T14:56:51;15.00;99.90
8593;DHT22;4334;49.982;8.398;2024-03-17T14:59:19;14.60;99.90
8593;DHT22;4334;49.982;8.398;2024-03-17T15:01:46;14.50;99.90
8593;DHT22;4334;49.982;8.398;2024-03-17T15:04:13;16.80;99.90
8593;DHT22;4334;49.982;8.398;2024-03-17T15:06:41;14.80;99.90
8593;DHT22;4334;49.982;8.398;2024-03-17T15:09:08;14.60;99.90
8593;DHT22;4334;49.982;8.398;2024-03-17T15:11:35;14.80;99.90
8593;DHT22;4334;49.982;8.398;2024-03-17T15:14:02;15.10;99.90
8593;DHT22;4334;49.982;8.398;2024-03-17T15:16:29;15.30;99.90
8593;DHT22;4334;49.982;8.398;2024-03-17T15:18:56;15.20;99.90
8593;DHT22;4334;49.982;8.398;2024-03-17T15:21:23;15.40;99.90
8593;DHT22;4334;49.982;8.398;2024-03-17T15:23:50;15.10;99.90
8593;DHT22;4334;49.982;8.398;2024-03-17T15:26:17;15.10;99.90
8593;DHT22;4334;49.982;8.398;2024-03-17T15:28:45;15.60;99.90
8593;DHT22;4334;49.982;8.398;2024-03-17T15:31:12;19.90;99.90
8593;DHT22;4334;49.982;8.398;2024-03-17T15:33:39;16.60;99.90
8593;DHT22;4334;49.982;8.398;2024-03-17T15:36:09;17.30;99.90
8593;DHT22;4334;49.982;8.398;2024-03-17T15:38:36;18.00;99.90
8593;DHT22;4334;49.982;8.398;2024-03-17T15:41:10;17.30;99.90
8593;DHT22;4334;49.982;8.398;2024-03-17T15:43:38;17.30;99.90
8593;DHT22;4334;49.982;8.398;2024-03-17T15:46:20;17.90;99.90
8593;DHT22;4334;49.982;8.398;2024-03-17T15:48:48;18.30;99.90
8593;DHT22;4334;49.982;8.398;2024-03-17T15:51:15;18.00;99.90
8593;DHT22;4334;49.982;8.398;2024-03-17T15:53:47;17.70;99.90
8593;DHT22;4334;49.982;8.398;2024-03-17T15:56:14;17.90;99.90
8593;DHT22;4334;49.982;8.398;2024-03-17T15:58:41;17.80;99.90
8593;DHT22;4334;49.982;8.398;2024-03-17T16:01:08;17.00;99.90
8593;DHT22;4334;49.982;8.398;2024-03-17T16:03:38;15.70;99.90
8593;DHT22;4334;49.982;8.398;2024-03-17T16:06:13;15.50;99.90
8593;DHT22;4334;49.982;8.398;2024-03-17T16:08:45;15.00;99.90
8593;DHT22;4334;49.982;8.398;2024-03-17T16:11:15;14.90;99.90
8593;DHT22;4334;49.982;8.398;2024-03-17T16:13:47;14.50;99.90
8593;DHT22;4334;49.982;8.398;2024-03-17T16:16:18;14.40;99.90
8593;DHT22;4334;49.982;8.398;2024-03-17T16:18:45;14.20;99.90
8593;DHT22;4334;49.982;8.398;2024-03-17T16:21:15;14.40;99.90
8593;DHT22;4334;49.982;8.398;2024-03-17T16:23:46;14.80;99.90
8593;DHT22;4334;49.982;8.398;2024-03-17T16:26:14;14.70;99.90
8593;DHT22;4334;49.982;8.398;2024-03-17T16:28:40;14.50;99.90
8593;DHT22;4334;49.982;8.398;2024-03-17T16:31:07;14.30;99.90
8593;DHT22;4334;49.982;8.398;2024-03-17T16:33:35;14.00;99.90
8593;DHT22;4334;49.982;8.398;2024-03-17T16:36:03;15.50;99.90
8593;DHT22;4334;49.982;8.398;2024-03-17T16:38:32;11.80;99.90
8593;DHT22;4334;49.982;8.398;2024-03-17T16:40:59;13.60;99.90
8593;DHT22;4334;49.982;8.398;2024-03-17T16:49:19;13.30;99.90
8593;DHT22;4334;49.982;8.398;2024-03-17T16:51:45;13.20;99.90
8593;DHT22;4334;49.982;8.398;2024-03-17T16:54:12;13.00;99.90
8593;DHT22;4334;49.982;8.398;2024-03-17T16:56:39;12.90;99.90